Time;durP1;ratioP1;P1;durP2;ratioP2;P2;SDS_P1;SDS_P2;PMS_P1;PMS_P2;Temp;Humidity;BMP_temperature;BMP_pressure;BME280_temperature;BME280_humidity;BME280_pressure;Samples;Min_cycle;Max_cycle;Signal;HPM_P1;HPM_P2
2022/08/22 00:00:11;;;;;;;4.15;1.25;;;18.10;10.50;;;;;;5133960;27;34138;-75
2022/08/22 00:03:00;;;;;;;1.98;1.25;;;18.10;10.40;;;;;;5168457;27;34092;-74
2022/08/22 00:05:47;;;;;;;4.13;1.23;;;18.00;10.70;;;;;;5149667;27;35998;-75
2022/08/22 00:08:25;;;;;;;2.28;1.33;;;18.00;12.20;;;;;;5167913;27;34030;-75
2022/08/22 00:11:11;;;;;;;3.47;1.13;;;18.00;10.30;;;;;;5127860;27;34401;-75
2022/08/22 00:13:56;;;;;;;1.42;1.15;;;17.90;10.80;;;;;;5163013;27;34108;-75
2022/08/22 00:16:53;;;;;;;3.38;1.83;;;17.90;12.20;;;;;;5132263;27;35625;-75
2022/08/22 00:19:45;;;;;;;3.88;1.40;;;17.90;12.30;;;;;;5149316;27;34134;-75
2022/08/22 00:22:39;;;;;;;1.80;1.02;;;17.80;11.80;;;;;;5149029;27;34152;-75
2022/08/22 00:25:26;;;;;;;2.90;1.20;;;17.70;12.10;;;;;;5137921;27;34067;-75
2022/08/22 00:28:00;;;;;;;4.45;1.30;;;17.60;11.70;;;;;;5148427;27;35945;-75
2022/08/22 00:30:29;;;;;;;4.22;1.48;;;17.60;10.50;;;;;;5148593;27;34008;-75
2022/08/22 00:33:04;;;;;;;1.98;1.40;;;17.60;10.50;;;;;;5148651;27;34251;-75
2022/08/22 00:35:36;;;;;;;3.95;1.15;;;17.50;12.10;;;;;;5131872;27;34186;-75
2022/08/22 00:38:18;;;;;;;1.42;0.98;;;17.50;11.30;;;;;;5148631;27;35725;-75
2022/08/22 00:40:59;;;;;;;3.30;1.50;;;17.50;13.30;;;;;;5163144;27;34435;-75
2022/08/22 00:43:56;;;;;;;3.08;1.38;;;17.40;12.50;;;;;;5140382;27;34221;-75
2022/08/22 00:46:52;;;;;;;4.38;1.20;;;17.40;13.10;;;;;;5138295;27;34157;-75
2022/08/22 00:49:49;;;;;;;2.38;1.30;;;17.40;12.60;;;;;;5134213;27;35916;-75
2022/08/22 00:52:39;;;;;;;2.30;1.23;;;17.40;13.40;;;;;;5166003;27;34090;-75
2022/08/22 00:55:35;;;;;;;2.20;1.00;;;17.30;13.10;;;;;;5167191;27;34337;-75
2022/08/22 00:58:34;;;;;;;2.30;1.05;;;17.30;13.10;;;;;;5148859;27;34079;-75
2022/08/22 01:01:06;;;;;;;3.28;1.08;;;17.20;13.40;;;;;;5158450;27;35328;-75
2022/08/22 01:03:51;;;;;;;8.20;1.40;;;17.20;11.80;;;;;;5108168;27;34049;-75
2022/08/22 01:06:53;;;;;;;2.92;1.45;;;17.20;13.20;;;;;;5131413;27;34190;-75
2022/08/22 01:09:43;;;;;;;1.95;1.23;;;17.10;14.20;;;;;;5154359;27;34318;-75
2022/08/22 01:12:29;;;;;;;2.33;1.17;;;17.10;12.90;;;;;;5166779;27;34060;-75
2022/08/22 01:15:08;;;;;;;3.40;1.10;;;17.10;13.10;;;;;;5148035;27;34102;-75
2022/08/22 01:17:58;;;;;;;3.30;1.40;;;17.00;12.00;;;;;;5149396;27;34160;-75
2022/08/22 01:20:51;;;;;;;7.35;1.52;;;17.10;13.30;;;;;;5133239;27;34576;-75
2022/08/22 01:23:55;;;;;;;2.58;1.30;;;17.10;14.10;;;;;;5148311;27;34329;-75
2022/08/22 01:26:47;;;;;;;2.45;1.35;;;17.10;14.00;;;;;;5123051;27;34280;-75
2022/08/22 01:29:47;;;;;;;4.15;1.13;;;17.10;14.00;;;;;;5147960;27;34260;-75
2022/08/22 01:32:46;;;;;;;4.97;1.48;;;17.10;13.60;;;;;;5166976;27;34355;-74
2022/08/22 01:35:35;;;;;;;2.20;1.13;;;17.10;13.90;;;;;;5147791;27;35615;-75
2022/08/22 01:38:31;;;;;;;2.20;1.25;;;17.10;14.20;;;;;;5148412;27;34341;-75
2022/08/22 01:41:18;;;;;;;1.85;1.00;;;17.10;14.00;;;;;;5140569;27;34233;-75
2022/08/22 01:44:02;;;;;;;4.13;1.30;;;17.00;13.00;;;;;;5126803;27;34152;-75
2022/08/22 01:46:59;;;;;;;2.55;1.30;;;17.10;13.80;;;;;;5165752;27;34102;-74
2022/08/22 01:49:41;;;;;;;4.47;1.23;;;17.00;13.60;;;;;;5147473;27;34413;-74
2022/08/22 01:52:16;;;;;;;3.30;1.50;;;17.00;12.20;;;;;;5148210;27;34427;-75
2022/08/22 01:54:58;;;;;;;2.85;1.30;;;17.00;11.90;;;;;;5130920;27;34039;-74
2022/08/22 01:57:25;;;;;;;2.33;1.58;;;17.00;12.80;;;;;;5147502;27;35831;-75
2022/08/22 01:59:56;;;;;;;1.98;1.10;;;17.00;11.60;;;;;;5147081;27;34241;-75
2022/08/22 02:02:50;;;;;;;3.58;1.42;;;16.90;12.00;;;;;;5148848;27;34314;-75
2022/08/22 02:05:45;;;;;;;3.25;1.33;;;16.90;14.00;;;;;;5133657;27;34164;-75
2022/08/22 02:08:46;;;;;;;4.38;1.10;;;16.80;14.40;;;;;;5138011;27;36452;-75
2022/08/22 02:11:36;;;;;;;2.92;1.30;;;16.70;14.70;;;;;;5129721;27;34300;-75
2022/08/22 02:14:22;;;;;;;2.78;1.38;;;16.70;14.50;;;;;;5154683;27;34269;-75
2022/08/22 02:16:55;;;;;;;4.05;1.40;;;16.70;12.90;;;;;;5135824;27;34102;-74
2022/08/22 02:19:30;;;;;;;1.95;1.10;;;16.60;12.60;;;;;;5151060;27;35759;-75
2022/08/22 02:22:18;;;;;;;2.45;1.40;;;16.50;13.00;;;;;;5152228;27;34164;-74
2022/08/22 02:25:04;;;;;;;4.20;1.23;;;16.50;13.30;;;;;;5150575;27;34098;-75
2022/08/22 02:27:58;;;;;;;3.83;1.38;;;16.40;15.20;;;;;;5133301;27;34133;-75
2022/08/22 02:30:43;;;;;;;2.97;1.30;;;16.40;14.50;;;;;;5169215;27;34414;-75
2022/08/22 02:33:20;;;;;;;2.20;1.40;;;16.30;13.80;;;;;;5150849;27;34134;-75
2022/08/22 02:35:53;;;;;;;1.77;1.10;;;16.20;13.40;;;;;;5164341;27;34103;-75
2022/08/22 02:38:39;;;;;;;2.38;1.20;;;16.10;13.90;;;;;;5141849;27;34317;-75
2022/08/22 02:41:40;;;;;;;4.53;1.20;;;16.00;15.90;;;;;;5124489;27;36593;-75
2022/08/22 02:44:19;;;;;;;3.95;1.38;;;16.00;15.90;;;;;;5128216;27;34099;-74
2022/08/22 02:47:05;;;;;;;5.18;1.20;;;15.90;14.50;;;;;;5140060;27;34140;-74
2022/08/22 02:49:50;;;;;;;2.83;1.30;;;15.80;14.10;;;;;;5151114;27;34071;-75
2022/08/22 02:52:24;;;;;;;3.45;1.23;;;15.70;14.00;;;;;;5149746;27;36567;-74
2022/08/22 02:54:58;;;;;;;1.58;1.00;;;15.70;14.20;;;;;;5168472;27;34159;-75
2022/08/22 02:57:42;;;;;;;2.53;1.38;;;15.70;14.40;;;;;;5150120;27;34307;-75
2022/08/22 03:00:26;;;;;;;3.65;1.30;;;15.60;14.50;;;;;;5133255;27;34146;-74
2022/08/22 03:03:15;;;;;;;2.30;1.30;;;15.50;14.70;;;;;;5168995;27;35247;-75
2022/08/22 03:05:54;;;;;;;2.97;1.20;;;15.50;16.90;;;;;;5133185;27;35432;-75
2022/08/22 03:08:26;;;;;;;1.30;1.20;;;15.40;15.30;;;;;;5106703;27;34401;-74
2022/08/22 03:11:14;;;;;;;2.70;1.40;;;15.30;14.60;;;;;;5108980;27;34135;-74
2022/08/22 03:14:03;;;;;;;2.35;1.40;;;15.30;16.10;;;;;;5144260;27;35799;-75
2022/08/22 03:16:47;;;;;;;2.28;1.23;;;15.20;16.30;;;;;;5149695;27;34255;-75
2022/08/22 03:19:30;;;;;;;10.00;1.50;;;15.10;16.00;;;;;;5132428;27;34351;-74
2022/08/22 03:22:01;;;;;;;4.63;1.38;;;15.10;15.80;;;;;;5167787;27;34062;-75
2022/08/22 03:24:38;;;;;;;4.25;1.60;;;15.00;14.90;;;;;;5168543;27;34862;-75
2022/08/22 03:27:18;;;;;;;2.47;1.38;;;15.00;15.40;;;;;;5133419;27;34430;-74
2022/08/22 03:29:50;;;;;;;1.80;1.17;;;14.90;15.30;;;;;;5116663;27;34220;-74
2022/08/22 03:32:20;;;;;;;1.70;1.13;;;14.90;14.90;;;;;;5149203;27;34122;-74
2022/08/22 03:35:03;;;;;;;2.38;1.40;;;14.90;15.10;;;;;;5148998;27;35842;-74
2022/08/22 03:37:39;;;;;;;3.38;1.25;;;14.80;16.60;;;;;;5149260;27;34239;-74
2022/08/22 03:40:37;;;;;;;2.47;1.35;;;14.80;15.70;;;;;;5167960;27;34143;-75
2022/08/22 03:43:23;;;;;;;2.60;1.48;;;14.80;16.70;;;;;;5168066;27;34197;-74
2022/08/22 03:46:24;;;;;;;1.55;1.15;;;14.80;16.90;;;;;;5162507;27;34981;-75
2022/08/22 03:49:12;;;;;;;2.28;1.10;;;14.70;17.50;;;;;;5148223;27;34195;-74
2022/08/22 03:52:03;;;;;;;3.17;1.20;;;14.70;16.20;;;;;;5149066;27;34097;-74
2022/08/22 03:54:49;;;;;;;1.73;1.20;;;14.60;16.10;;;;;;5167819;27;34266;-74
2022/08/22 03:57:50;;;;;;;5.28;1.40;;;14.60;16.70;;;;;;5167218;27;34312;-74
2022/08/22 04:00:34;;;;;;;2.45;1.30;;;14.60;17.50;;;;;;5154675;27;34181;-75
2022/08/22 04:03:31;;;;;;;2.08;1.58;;;14.50;15.90;;;;;;5149140;27;34213;-75
2022/08/22 04:06:24;;;;;;;3.42;1.38;;;14.50;17.60;;;;;;5142479;27;34104;-74
2022/08/22 04:09:12;;;;;;;3.00;1.20;;;14.40;16.80;;;;;;5146606;27;36641;-74
2022/08/22 04:11:58;;;;;;;2.90;1.15;;;14.40;16.80;;;;;;5148514;27;34128;-74
2022/08/22 04:14:53;;;;;;;2.22;1.00;;;14.30;16.10;;;;;;5148897;27;34193;-75
2022/08/22 04:17:45;;;;;;;2.17;1.17;;;14.30;16.80;;;;;;5134147;27;34123;-75
2022/08/22 04:20:47;;;;;;;2.75;1.40;;;14.30;17.00;;;;;;5151233;27;34471;-74
2022/08/22 04:23:48;;;;;;;2.60;1.10;;;14.30;17.70;;;;;;5134358;27;34224;-74
2022/08/22 04:26:26;;;;;;;2.10;1.60;;;14.20;17.70;;;;;;5123625;27;34139;-75
2022/08/22 04:29:01;;;;;;;2.25;1.20;;;14.20;16.40;;;;;;5147529;27;34572;-75
2022/08/22 04:31:35;;;;;;;3.85;1.70;;;14.20;15.90;;;;;;5132338;27;35907;-74
2022/08/22 04:34:11;;;;;;;1.60;1.50;;;14.20;16.20;;;;;;5148692;27;34516;-75
2022/08/22 04:36:53;;;;;;;1.40;1.30;;;14.20;16.30;;;;;;5131243;27;34478;-75
2022/08/22 04:39:38;;;;;;;2.47;1.35;;;14.20;17.10;;;;;;5148763;27;34088;-74
2022/08/22 04:42:14;;;;;;;4.10;1.50;;;14.20;16.90;;;;;;5148179;27;36847;-75
2022/08/22 04:45:00;;;;;;;4.15;1.30;;;14.20;16.50;;;;;;5148122;27;34244;-75
2022/08/22 04:47:37;;;;;;;2.97;1.40;;;14.20;16.70;;;;;;5148545;27;34814;-75
2022/08/22 04:50:19;;;;;;;1.95;1.40;;;14.30;16.50;;;;;;5149126;27;34456;-74
2022/08/22 04:53:17;;;;;;;3.33;1.77;;;14.30;17.40;;;;;;5147685;27;35499;-74
2022/08/22 04:56:10;;;;;;;3.00;1.70;;;14.40;18.60;;;;;;5167465;27;34156;-74
2022/08/22 04:58:45;;;;;;;2.15;1.55;;;14.40;18.80;;;;;;5134849;27;34293;-75
2022/08/22 05:01:24;;;;;;;1.40;1.30;;;14.50;16.90;;;;;;5163028;27;34202;-74
2022/08/22 05:03:59;;;;;;;3.25;1.65;;;14.60;17.50;;;;;;5122616;27;35656;-75
2022/08/22 05:06:29;;;;;;;2.63;1.40;;;14.60;16.60;;;;;;5150176;27;34347;-75
2022/08/22 05:09:00;;;;;;;1.33;1.15;;;14.70;16.30;;;;;;5166683;27;34139;-75
2022/08/22 05:11:28;;;;;;;1.60;1.50;;;14.80;16.50;;;;;;5148389;27;34411;-74
2022/08/22 05:14:00;;;;;;;1.83;1.30;;;14.90;16.10;;;;;;5147754;27;36992;-74
2022/08/22 05:16:34;;;;;;;2.42;1.75;;;14.90;16.30;;;;;;5147814;27;34402;-76
2022/08/22 05:19:06;;;;;;;1.77;1.40;;;15.10;16.60;;;;;;5148102;27;34253;-75
2022/08/22 05:21:53;;;;;;;2.00;1.40;;;15.20;16.10;;;;;;5166921;27;34434;-76
2022/08/22 05:24:28;;;;;;;1.73;1.63;;;15.30;16.00;;;;;;5139152;27;35754;-75
2022/08/22 05:27:22;;;;;;;3.70;1.70;;;15.40;16.50;;;;;;5148037;27;34288;-75
2022/08/22 05:29:54;;;;;;;6.13;1.90;;;15.50;18.70;;;;;;5147623;27;34086;-75
2022/08/22 05:32:27;;;;;;;2.30;1.38;;;15.70;16.10;;;;;;5148202;27;34441;-75
2022/08/22 05:34:59;;;;;;;1.73;1.58;;;15.80;16.60;;;;;;5166399;27;34241;-75
2022/08/22 05:37:37;;;;;;;1.88;1.40;;;15.90;16.20;;;;;;5149011;27;34379;-75
2022/08/22 05:40:04;;;;;;;2.22;1.63;;;16.10;16.40;;;;;;5152768;27;34069;-75
2022/08/22 05:42:35;;;;;;;6.70;1.73;;;16.20;15.10;;;;;;5134499;27;34110;-75
2022/08/22 05:45:03;;;;;;;3.60;1.63;;;16.30;15.20;;;;;;5134705;27;35682;-75
2022/08/22 05:47:38;;;;;;;3.30;1.80;;;16.40;14.80;;;;;;5134093;27;34075;-75
2022/08/22 05:50:11;;;;;;;2.80;1.58;;;16.50;15.70;;;;;;5170115;27;34154;-75
2022/08/22 05:52:58;;;;;;;4.65;1.67;;;16.60;15.20;;;;;;5151619;27;34335;-75
2022/08/22 05:55:39;;;;;;;2.50;1.92;;;16.70;16.80;;;;;;5151010;27;35802;-75
2022/08/22 05:58:29;;;;;;;2.40;1.55;;;16.80;15.60;;;;;;5151301;27;34000;-76
2022/08/22 06:01:17;;;;;;;3.70;1.92;;;16.90;15.80;;;;;;5118249;27;34202;-75
2022/08/22 06:03:56;;;;;;;2.88;1.75;;;17.00;15.20;;;;;;5151142;27;34174;-75
2022/08/22 06:06:23;;;;;;;5.55;1.77;;;17.20;15.30;;;;;;5151848;27;34184;-75
2022/08/22 06:09:00;;;;;;;1.67;1.38;;;17.20;14.30;;;;;;5150777;27;34263;-75
2022/08/22 06:11:41;;;;;;;3.25;1.50;;;17.40;14.60;;;;;;5150966;27;34092;-75
2022/08/22 06:14:27;;;;;;;2.85;1.70;;;17.50;15.50;;;;;;5150685;27;34442;-76
2022/08/22 06:17:04;;;;;;;2.72;1.63;;;17.60;14.70;;;;;;5168701;27;35254;-75
2022/08/22 06:19:33;;;;;;;3.28;1.75;;;17.70;14.50;;;;;;5108489;27;34194;-75
2022/08/22 06:22:00;;;;;;;2.35;1.48;;;17.80;14.10;;;;;;5131069;27;34343;-76
2022/08/22 06:24:27;;;;;;;5.32;2.20;;;18.00;13.80;;;;;;5148192;27;34071;-75
2022/08/22 06:26:59;;;;;;;4.85;1.45;;;18.10;13.60;;;;;;5138110;27;36207;-75
2022/08/22 06:29:47;;;;;;;2.65;1.50;;;18.20;13.60;;;;;;5147126;27;34450;-76
2022/08/22 06:32:22;;;;;;;6.38;1.60;;;18.30;15.40;;;;;;5129955;27;34144;-75
2022/08/22 06:34:49;;;;;;;3.83;1.52;;;18.30;13.70;;;;;;5132395;27;34491;-75
2022/08/22 06:37:24;;;;;;;3.00;1.55;;;18.50;13.50;;;;;;5132883;27;36526;-75
2022/08/22 06:39:53;;;;;;;5.22;1.80;;;18.60;13.40;;;;;;5132796;27;34233;-75
2022/08/22 06:42:27;;;;;;;2.00;1.50;;;18.70;13.00;;;;;;5163508;27;34187;-76
2022/08/22 06:45:08;;;;;;;2.22;1.65;;;18.80;13.00;;;;;;5169448;27;34437;-75
2022/08/22 06:47:41;;;;;;;3.78;1.58;;;19.00;13.30;;;;;;5154453;27;35269;-75
2022/08/22 06:50:18;;;;;;;2.92;1.45;;;19.30;12.50;;;;;;5148814;27;34350;-75
2022/08/22 06:53:06;;;;;;;4.28;1.67;;;19.40;12.00;;;;;;5149656;27;34062;-75
2022/08/22 06:55:35;;;;;;;3.55;1.80;;;19.50;11.90;;;;;;5143500;27;34362;-75
2022/08/22 06:58:05;;;;;;;2.25;1.50;;;19.60;11.30;;;;;;5143578;27;36363;-76
2022/08/22 07:00:34;;;;;;;3.53;1.75;;;19.80;11.50;;;;;;5144949;27;34254;-76
2022/08/22 07:03:12;;;;;;;3.90;1.58;;;19.90;11.30;;;;;;5150129;27;34109;-75
2022/08/22 07:05:41;;;;;;;3.55;1.50;;;20.10;10.30;;;;;;5133731;27;34060;-76
2022/08/22 07:08:12;;;;;;;2.22;1.20;;;20.30;10.70;;;;;;5149807;27;35712;-75
2022/08/22 07:10:42;;;;;;;4.07;1.90;;;20.60;10.30;;;;;;5128882;27;34232;-75
2022/08/22 07:13:24;;;;;;;5.80;1.60;;;20.80;10.00;;;;;;5120967;27;34297;-75
2022/08/22 07:15:55;;;;;;;3.63;1.55;;;20.90;10.10;;;;;;5136067;27;34424;-75
2022/08/22 07:18:26;;;;;;;4.50;1.40;;;21.10;9.40;;;;;;5144204;27;35472;-75
2022/08/22 07:20:55;;;;;;;2.35;1.35;;;21.20;9.60;;;;;;5134357;27;34212;-75
2022/08/22 07:23:39;;;;;;;2.40;1.50;;;21.30;9.50;;;;;;5138890;27;34130;-75
2022/08/22 07:26:30;;;;;;;2.20;1.50;;;21.30;8.30;;;;;;5167505;27;34319;-76
2022/08/22 07:29:18;;;;;;;5.40;1.42;;;21.30;9.40;;;;;;5161618;27;34811;-76
2022/08/22 07:31:58;;;;;;;2.25;1.30;;;21.50;8.80;;;;;;5129289;27;34657;-76
2022/08/22 07:35:04;;;;;;;2.75;1.48;;;21.50;8.90;;;;;;5150206;27;34173;-75
2022/08/22 07:37:57;;;;;;;1.55;1.40;;;21.70;9.00;;;;;;5131345;27;34127;-75
2022/08/22 07:40:30;;;;;;;2.83;1.50;;;21.90;7.30;;;;;;5131955;27;34485;-75
2022/08/22 07:43:22;;;;;;;6.45;1.50;;;22.00;7.80;;;;;;5129955;27;33644;-75
2022/08/22 07:45:53;;;;;;;2.35;1.50;;;22.10;6.90;;;;;;5157694;27;34280;-75
2022/08/22 07:48:29;;;;;;;4.30;1.60;;;22.30;8.40;;;;;;5150488;27;34099;-75
2022/08/22 07:51:04;;;;;;;1.80;1.40;;;22.50;7.60;;;;;;5169107;27;35434;-75
2022/08/22 07:53:39;;;;;;;6.32;1.50;;;22.90;6.90;;;;;;5151070;27;34459;-76
2022/08/22 07:56:12;;;;;;;4.95;1.25;;;23.00;5.80;;;;;;5168168;27;34262;-76
2022/08/22 07:58:40;;;;;;;4.75;1.17;;;23.30;6.80;;;;;;5150179;27;34199;-75
2022/08/22 08:01:09;;;;;;;2.30;1.20;;;23.60;6.30;;;;;;5147180;27;35640;-76
2022/08/22 08:03:57;;;;;;;3.13;1.08;;;24.00;4.90;;;;;;5112727;27;33992;-76
2022/08/22 08:06:31;;;;;;;2.55;1.23;;;24.40;4.20;;;;;;5128546;27;34351;-76
2022/08/22 08:08:57;;;;;;;2.10;1.27;;;24.70;4.80;;;;;;5144217;27;34066;-76
2022/08/22 08:11:26;;;;;;;2.35;1.23;;;25.10;4.20;;;;;;5140768;27;35469;-75
2022/08/22 08:13:58;;;;;;;1.55;1.10;;;25.20;2.80;;;;;;5138443;27;34388;-76
2022/08/22 08:16:29;;;;;;;2.38;1.15;;;25.40;2.50;;;;;;5150971;27;34325;-76
2022/08/22 08:18:58;;;;;;;4.97;1.65;;;25.70;1.80;;;;;;5150842;27;34120;-75
2022/08/22 08:21:30;;;;;;;5.22;1.30;;;25.90;1.70;;;;;;5146772;27;35268;-76
2022/08/22 08:23:59;;;;;;;4.07;1.30;;;26.10;1.00;;;;;;5162269;27;34334;-76
2022/08/22 08:26:34;;;;;;;7.72;1.67;;;26.30;1.10;;;;;;5131387;27;34265;-76
2022/08/22 08:29:02;;;;;;;3.45;1.25;;;26.60;1.00;;;;;;5150163;27;34190;-75
2022/08/22 08:31:36;;;;;;;1.38;1.23;;;26.90;1.00;;;;;;5130929;27;35799;-76
2022/08/22 08:34:10;;;;;;;4.22;1.30;;;27.20;1.00;;;;;;5113708;27;34664;-76
2022/08/22 08:36:51;;;;;;;5.15;1.10;;;27.50;1.00;;;;;;5130113;27;34200;-77
2022/08/22 08:39:25;;;;;;;3.25;1.40;;;27.80;1.00;;;;;;5130099;27;34149;-76
2022/08/22 08:42:13;;;;;;;4.80;1.30;;;28.10;1.00;;;;;;5147769;27;35992;-76
2022/08/22 08:45:03;;;;;;;2.40;1.10;;;28.40;1.00;;;;;;5131561;27;34401;-76
2022/08/22 08:47:57;;;;;;;2.72;1.10;;;28.80;1.00;;;;;;5129713;27;34427;-76
2022/08/22 08:50:48;;;;;;;3.15;1.08;;;28.80;1.00;;;;;;5163628;27;34260;-76
2022/08/22 08:53:40;;;;;;;1.83;1.02;;;28.80;1.00;;;;;;5149685;27;34172;-77
2022/08/22 08:56:30;;;;;;;2.90;1.05;;;28.80;1.00;;;;;;5167868;27;34377;-73
2022/08/22 08:59:17;;;;;;;15.88;1.58;;;29.00;1.00;;;;;;5150252;27;34197;-74
2022/08/22 09:02:09;;;;;;;2.25;1.27;;;29.20;1.00;;;;;;5159608;27;34141;-73
2022/08/22 09:05:10;;;;;;;2.25;1.25;;;29.20;1.00;;;;;;5143180;27;34337;-75
2022/08/22 09:07:53;;;;;;;1.83;1.00;;;29.20;1.00;;;;;;5119670;27;34210;-73
2022/08/22 09:10:47;;;;;;;3.60;1.10;;;29.20;1.00;;;;;;5167895;27;34295;-73
2022/08/22 09:13:36;;;;;;;2.30;0.85;;;29.20;1.00;;;;;;5164711;27;34477;-75
2022/08/22 09:16:21;;;;;;;3.15;1.15;;;29.40;1.00;;;;;;5130041;27;35742;-73
2022/08/22 09:19:14;;;;;;;2.40;1.00;;;29.40;1.00;;;;;;5141989;27;34511;-74
2022/08/22 09:22:04;;;;;;;2.30;1.20;;;29.40;1.00;;;;;;5148269;27;34225;-74
2022/08/22 09:24:47;;;;;;;2.38;1.80;;;29.30;1.00;;;;;;5140242;27;34141;-73
2022/08/22 09:27:24;;;;;;;2.10;1.10;;;29.20;1.00;;;;;;5148917;27;35873;-74
2022/08/22 09:29:56;;;;;;;4.05;1.10;;;29.30;1.00;;;;;;5118935;27;34241;-75
2022/08/22 09:32:53;;;;;;;1.88;1.33;;;29.50;1.00;;;;;;5135780;27;34366;-74
2022/08/22 09:35:27;;;;;;;2.97;1.40;;;29.60;1.00;;;;;;5131663;27;34157;-74
2022/08/22 09:38:28;;;;;;;3.95;1.40;;;29.60;1.00;;;;;;5113005;27;36524;-75
2022/08/22 09:41:15;;;;;;;1.75;0.93;;;29.70;1.00;;;;;;5132095;27;34149;-74
2022/08/22 09:43:50;;;;;;;2.90;1.10;;;29.90;1.00;;;;;;5149215;27;34172;-76
2022/08/22 09:46:24;;;;;;;3.42;1.08;;;29.90;1.00;;;;;;5167268;27;34532;-75
2022/08/22 09:49:11;;;;;;;2.75;1.02;;;30.00;1.00;;;;;;5112679;27;35740;-74
2022/08/22 09:51:44;;;;;;;3.35;1.20;;;30.20;1.00;;;;;;5140707;27;34053;-75
2022/08/22 09:54:29;;;;;;;6.32;1.30;;;30.40;1.00;;;;;;5149595;27;34449;-74
2022/08/22 09:57:13;;;;;;;2.53;0.98;;;30.40;1.00;;;;;;5167980;27;34055;-75
2022/08/22 10:00:10;;;;;;;2.22;1.05;;;30.50;1.00;;;;;;5147181;27;35937;-75
2022/08/22 10:02:49;;;;;;;4.30;1.20;;;30.80;1.00;;;;;;5135621;27;34102;-75
2022/08/22 10:05:27;;;;;;;1.80;1.20;;;31.00;1.00;;;;;;5148980;27;34136;-76
2022/08/22 10:08:06;;;;;;;4.70;1.15;;;31.10;1.00;;;;;;5147809;27;34267;-75
2022/08/22 10:10:55;;;;;;;2.60;1.20;;;31.20;1.00;;;;;;5146233;27;35741;-75
2022/08/22 10:13:47;;;;;;;1.88;1.00;;;31.30;1.00;;;;;;5138777;27;34381;-74
2022/08/22 10:16:41;;;;;;;1.90;1.00;;;31.60;1.00;;;;;;5138106;27;34153;-75
2022/08/22 10:19:25;;;;;;;1.45;0.95;;;31.60;1.00;;;;;;5152110;27;34281;-75
2022/08/22 10:22:14;;;;;;;3.35;1.20;;;31.70;1.00;;;;;;5120569;27;36576;-74
2022/08/22 10:25:11;;;;;;;1.27;0.90;;;31.90;1.00;;;;;;5137773;27;34122;-74
2022/08/22 10:27:55;;;;;;;2.20;0.98;;;31.80;1.00;;;;;;5136560;27;34278;-75
2022/08/22 10:30:38;;;;;;;1.73;0.95;;;31.70;1.00;;;;;;5130358;27;34303;-75
2022/08/22 10:33:14;;;;;;;2.20;1.13;;;31.60;1.00;;;;;;5140139;27;35526;-75
2022/08/22 10:36:00;;;;;;;5.28;1.20;;;31.50;1.00;;;;;;5167176;27;34280;-75
2022/08/22 10:38:33;;;;;;;2.88;1.02;;;31.50;1.00;;;;;;5137231;27;34092;-75
2022/08/22 10:41:11;;;;;;;1.88;1.17;;;31.70;1.00;;;;;;5152107;27;34289;-76
2022/08/22 10:43:49;;;;;;;2.10;1.00;;;31.70;1.00;;;;;;5125484;27;36070;-74
2022/08/22 10:46:25;;;;;;;1.52;1.00;;;31.60;1.00;;;;;;5145809;27;34133;-76
2022/08/22 10:48:59;;;;;;;2.92;1.00;;;31.60;1.00;;;;;;5147168;27;34143;-76
2022/08/22 10:51:46;;;;;;;1.45;1.30;;;31.80;1.00;;;;;;5139662;27;34497;-76
2022/08/22 10:54:47;;;;;;;2.58;1.10;;;32.00;1.00;;;;;;5152800;27;34403;-75
2022/08/22 10:57:35;;;;;;;3.97;1.10;;;32.10;1.00;;;;;;5150112;27;34281;-74
2022/08/22 11:00:21;;;;;;;3.72;1.10;;;32.10;1.00;;;;;;5135729;27;34270;-75
2022/08/22 11:03:01;;;;;;;1.15;0.90;;;32.00;1.00;;;;;;5169005;27;34043;-75
2022/08/22 11:05:34;;;;;;;6.00;1.50;;;32.00;1.00;;;;;;5117478;27;34437;-75
2022/08/22 11:08:20;;;;;;;1.33;1.05;;;32.10;1.00;;;;;;5138903;27;34131;-75
2022/08/22 11:11:05;;;;;;;3.70;1.33;;;31.90;1.00;;;;;;5145220;27;34356;-77
2022/08/22 11:13:59;;;;;;;2.40;1.08;;;31.90;1.00;;;;;;5144865;27;34389;-76
2022/08/22 11:16:50;;;;;;;2.80;1.20;;;32.00;1.00;;;;;;5144166;27;35844;-75
2022/08/22 11:19:40;;;;;;;2.85;0.80;;;32.00;1.00;;;;;;5150613;27;34284;-75
2022/08/22 11:22:43;;;;;;;3.97;1.13;;;32.10;1.00;;;;;;5141513;27;34488;-75
2022/08/22 11:25:32;;;;;;;3.05;1.20;;;32.20;1.00;;;;;;5117202;27;34416;-75
2022/08/22 11:28:29;;;;;;;3.35;1.05;;;32.40;1.00;;;;;;5141471;27;36504;-74
2022/08/22 11:31:12;;;;;;;2.53;0.95;;;32.40;1.00;;;;;;5148432;27;34410;-75
2022/08/22 11:33:50;;;;;;;2.13;1.20;;;32.50;1.00;;;;;;5150523;27;34262;-75
2022/08/22 11:36:30;;;;;;;2.08;1.10;;;32.60;1.00;;;;;;5136412;27;34169;-76
2022/08/22 11:39:26;;;;;;;2.42;1.30;;;32.60;1.00;;;;;;5137723;27;36315;-75
2022/08/22 11:42:04;;;;;;;2.78;1.30;;;32.60;1.00;;;;;;5145854;27;34174;-74
2022/08/22 11:44:35;;;;;;;1.60;1.10;;;32.60;1.00;;;;;;5112704;27;34306;-74
2022/08/22 11:47:09;;;;;;;2.38;1.08;;;32.80;1.00;;;;;;5150206;27;34283;-75
2022/08/22 11:50:03;;;;;;;2.28;1.08;;;33.00;1.00;;;;;;5141404;27;35831;-75
2022/08/22 11:52:52;;;;;;;2.15;1.02;;;33.30;1.00;;;;;;5135028;27;34203;-74
2022/08/22 11:55:27;;;;;;;0.70;0.70;;;33.60;1.00;;;;;;5142161;27;34116;-77
2022/08/22 11:58:23;;;;;;;1.73;1.05;;;33.80;1.00;;;;;;5125808;27;34524;-75
2022/08/22 12:01:20;;;;;;;2.92;1.10;;;34.20;1.00;;;;;;5131103;27;35813;-75
2022/08/22 12:04:08;;;;;;;4.30;1.02;;;34.40;1.00;;;;;;5119778;27;34393;-75
2022/08/22 12:06:59;;;;;;;3.08;1.23;;;34.50;1.00;;;;;;5133545;27;34119;-75
2022/08/22 12:09:42;;;;;;;3.45;1.25;;;34.40;1.00;;;;;;5127243;27;34339;-75
2022/08/22 12:12:36;;;;;;;5.53;1.08;;;34.20;1.00;;;;;;5125392;27;35668;-75
2022/08/22 12:15:14;;;;;;;3.60;1.08;;;34.00;1.00;;;;;;5148672;27;34209;-75
2022/08/22 12:18:15;;;;;;;1.83;1.00;;;33.80;1.00;;;;;;5127425;27;34489;-75
2022/08/22 12:21:05;;;;;;;3.53;0.82;;;33.80;1.00;;;;;;5128122;27;34221;-75
2022/08/22 12:23:58;;;;;;;3.17;1.20;;;33.40;1.00;;;;;;5121366;27;35565;-75
2022/08/22 12:26:32;;;;;;;2.47;1.10;;;33.10;1.00;;;;;;5135934;27;34757;-75
2022/08/22 12:29:24;;;;;;;1.33;1.17;;;33.10;1.00;;;;;;5111780;27;34252;-75
2022/08/22 12:32:23;;;;;;;1.25;0.93;;;33.00;1.00;;;;;;5116384;27;34371;-75
2022/08/22 12:35:09;;;;;;;2.92;1.30;;;33.00;1.00;;;;;;5106362;27;35502;-75
2022/08/22 12:38:01;;;;;;;5.03;1.15;;;33.00;1.00;;;;;;5126828;27;34283;-75
2022/08/22 12:40:53;;;;;;;1.33;0.95;;;33.00;1.00;;;;;;5120643;27;34282;-74
2022/08/22 12:43:47;;;;;;;3.75;1.33;;;33.00;1.00;;;;;;5114064;27;34022;-76
2022/08/22 12:46:26;;;;;;;1.83;1.10;;;32.80;1.00;;;;;;5127990;27;34504;-76
2022/08/22 12:49:15;;;;;;;3.00;1.00;;;32.90;1.00;;;;;;5136574;27;34248;-74
2022/08/22 12:52:00;;;;;;;2.42;1.10;;;32.80;1.00;;;;;;5132118;27;34285;-75
2022/08/22 12:54:46;;;;;;;3.10;1.20;;;32.60;1.00;;;;;;5126082;27;34372;-75
2022/08/22 12:57:38;;;;;;;1.33;1.00;;;32.70;1.00;;;;;;5115529;27;35675;-75
2022/08/22 13:00:23;;;;;;;6.95;1.27;;;33.00;1.00;;;;;;5097678;27;34246;-75
2022/08/22 13:02:52;;;;;;;2.38;1.13;;;33.10;1.00;;;;;;5127441;27;34192;-75
2022/08/22 13:05:25;;;;;;;5.50;1.30;;;33.10;1.00;;;;;;5126111;27;34238;-75
2022/08/22 13:07:58;;;;;;;3.10;1.15;;;32.90;1.00;;;;;;5104665;27;36663;-76
2022/08/22 13:10:39;;;;;;;3.65;1.20;;;32.60;1.00;;;;;;5128578;27;34187;-76
2022/08/22 13:13:07;;;;;;;2.75;1.27;;;32.30;1.00;;;;;;5127463;27;34141;-74
2022/08/22 13:15:41;;;;;;;1.92;1.00;;;32.20;1.00;;;;;;5128629;27;34663;-74
2022/08/22 13:18:17;;;;;;;1.70;0.95;;;32.10;1.00;;;;;;5109142;27;36402;-76
2022/08/22 13:20:46;;;;;;;4.05;1.10;;;32.30;1.00;;;;;;5146820;27;34188;-75
2022/08/22 13:23:25;;;;;;;2.40;1.27;;;32.50;1.00;;;;;;5090469;27;34166;-75
2022/08/22 13:26:06;;;;;;;4.65;1.25;;;32.60;1.00;;;;;;5118520;27;34254;-75
2022/08/22 13:28:50;;;;;;;1.33;0.93;;;32.90;1.00;;;;;;5128728;27;35786;-75
2022/08/22 13:31:25;;;;;;;6.65;1.42;;;33.00;1.00;;;;;;5121297;27;34147;-75
2022/08/22 13:34:08;;;;;;;1.58;0.93;;;33.00;1.00;;;;;;5108288;27;34294;-75
2022/08/22 13:36:42;;;;;;;2.22;1.20;;;33.00;1.00;;;;;;5128022;27;34506;-75
2022/08/22 13:39:25;;;;;;;4.35;1.17;;;33.00;1.00;;;;;;5122961;27;34334;-77
2022/08/22 13:41:55;;;;;;;1.25;1.10;;;32.90;1.00;;;;;;5109630;27;34071;-75
2022/08/22 13:44:27;;;;;;;4.15;1.10;;;32.90;1.00;;;;;;5132178;27;34556;-75
2022/08/22 13:47:01;;;;;;;3.65;1.60;;;32.80;1.00;;;;;;5130715;27;34109;-76
2022/08/22 13:49:45;;;;;;;1.33;0.95;;;32.90;1.00;;;;;;5149065;27;35350;-75
2022/08/22 13:52:27;;;;;;;3.38;1.10;;;32.90;1.00;;;;;;5101911;27;34144;-75
2022/08/22 13:55:02;;;;;;;3.22;1.35;;;33.00;1.00;;;;;;5139831;27;34538;-75
2022/08/22 13:57:45;;;;;;;2.70;1.17;;;33.00;1.00;;;;;;5148716;27;34137;-76
2022/08/22 14:00:38;;;;;;;2.75;1.00;;;33.00;1.00;;;;;;5150204;27;36479;-75
2022/08/22 14:03:14;;;;;;;6.93;1.10;;;32.90;1.00;;;;;;5148283;27;34377;-76
2022/08/22 14:05:47;;;;;;;0.93;0.90;;;32.80;1.00;;;;;;5148250;27;34285;-75
2022/08/22 14:08:22;;;;;;;2.47;1.13;;;32.80;1.00;;;;;;5131128;27;34238;-75
2022/08/22 14:11:17;;;;;;;1.77;0.80;;;32.70;1.00;;;;;;5144632;27;36506;-75